Time;durP1;ratioP1;P1;durP2;ratioP2;P2;SDS_P1;SDS_P2;PMS_P1;PMS_P2;Temp;Humidity;BMP_temperature;BMP_pressure;BME280_temperature;BME280_humidity;BME280_pressure;Samples;Min_cycle;Max_cycle;Signal;HPM_P1;HPM_P2
2023/03/30 00:00:49;;;;;;;7.20;3.20;;;11.90;99.90;;;;;;5065980;28;20052;-37
2023/03/30 00:03:18;;;;;;;7.75;3.50;;;11.90;99.90;;;;;;5081304;28;20070;-41
2023/03/30 00:05:45;;;;;;;7.57;3.38;;;11.90;99.90;;;;;;5066465;28;20048;-42
2023/03/30 00:08:13;;;;;;;11.68;3.53;;;11.90;99.90;;;;;;5086003;28;20069;-45
2023/03/30 00:10:39;;;;;;;5.90;2.95;;;11.90;99.90;;;;;;5078080;28;20493;-43
2023/03/30 00:13:06;;;;;;;9.48;3.42;;;11.90;99.90;;;;;;5065852;28;20101;-43
2023/03/30 00:15:33;;;;;;;6.50;3.08;;;11.80;99.90;;;;;;5064375;28;20119;-42
2023/03/30 00:17:58;;;;;;;5.40;3.13;;;11.80;99.90;;;;;;5086711;28;20569;-42
2023/03/30 00:20:24;;;;;;;6.68;3.10;;;11.70;99.90;;;;;;5078335;28;20135;-47
2023/03/30 00:22:50;;;;;;;7.70;3.15;;;11.70;99.90;;;;;;5083154;28;20386;-46
2023/03/30 00:25:16;;;;;;;6.35;2.90;;;11.70;99.90;;;;;;5083996;28;20167;-42
2023/03/30 00:27:43;;;;;;;6.07;2.95;;;11.60;99.90;;;;;;5086098;28;20056;-43
2023/03/30 00:30:14;;;;;;;6.25;3.10;;;11.60;99.90;;;;;;5080758;28;20513;-42
2023/03/30 00:32:41;;;;;;;6.57;3.10;;;11.60;99.90;;;;;;5083781;28;20123;-42
2023/03/30 00:35:07;;;;;;;7.63;2.45;;;11.70;99.90;;;;;;5081727;28;20044;-43
2023/03/30 00:37:36;;;;;;;6.28;3.30;;;11.60;99.90;;;;;;5083824;28;20047;-43
2023/03/30 00:40:09;;;;;;;8.45;2.92;;;11.70;99.90;;;;;;5081691;28;20580;-46
2023/03/30 00:42:36;;;;;;;8.50;2.95;;;11.70;99.90;;;;;;5082030;28;20044;-44
2023/03/30 00:45:07;;;;;;;5.57;2.70;;;11.70;99.90;;;;;;5083178;28;20512;-42
2023/03/30 00:47:38;;;;;;;6.13;2.70;;;11.70;99.90;;;;;;5077013;28;20047;-44
2023/03/30 00:50:06;;;;;;;7.18;2.95;;;11.70;99.90;;;;;;5084082;28;20075;-37
2023/03/30 00:52:36;;;;;;;5.90;3.00;;;11.70;99.90;;;;;;5078695;28;20036;-36
2023/03/30 00:55:06;;;;;;;6.38;2.60;;;11.70;99.90;;;;;;5083010;28;20520;-37
2023/03/30 00:57:35;;;;;;;5.00;2.63;;;11.70;99.90;;;;;;5085192;28;20529;-38
2023/03/30 01:00:01;;;;;;;6.20;2.95;;;11.70;99.90;;;;;;5083508;28;20056;-36
2023/03/30 01:02:32;;;;;;;5.22;2.53;;;11.70;99.90;;;;;;5083262;28;20044;-37
2023/03/30 01:04:58;;;;;;;4.55;2.20;;;11.80;99.90;;;;;;5064051;28;20478;-36
2023/03/30 01:07:25;;;;;;;5.95;2.20;;;11.90;99.90;;;;;;5082002;28;20059;-39
2023/03/30 01:09:51;;;;;;;7.63;2.42;;;12.00;99.90;;;;;;5079642;28;20067;-38
2023/03/30 01:12:19;;;;;;;5.18;2.40;;;12.10;99.90;;;;;;5062410;28;20044;-37
2023/03/30 01:14:45;;;;;;;7.45;2.75;;;12.20;99.90;;;;;;5077872;28;20060;-37
2023/03/30 01:17:18;;;;;;;4.22;2.50;;;12.30;99.90;;;;;;5079513;28;20055;-37
2023/03/30 01:20:18;;;;;;;7.07;3.28;;;12.40;99.90;;;;;;5080549;28;20129;-36
2023/03/30 01:23:32;;;;;;;5.05;2.53;;;12.40;99.90;;;;;;5084153;28;20066;-38
2023/03/30 01:26:35;;;;;;;7.20;2.33;;;12.30;99.90;;;;;;5010272;28;20052;-36
2023/03/30 01:29:06;;;;;;;;;;;12.30;99.90;;;;;;5079709;28;20056;-38
2023/03/30 01:31:32;;;;;;;5.85;2.63;;;12.30;99.90;;;;;;5087387;28;20332;-37
2023/03/30 01:34:16;;;;;;;7.30;2.60;;;12.30;99.90;;;;;;5080001;28;20056;-37
2023/03/30 01:37:20;;;;;;;6.13;2.13;;;12.40;99.90;;;;;;5086184;28;20098;-36
2023/03/30 01:39:55;;;;;;;7.72;2.80;;;12.40;99.90;;;;;;5081155;28;20048;-36
2023/03/30 01:42:45;;;;;;;6.05;2.20;;;12.30;99.90;;;;;;5086719;28;20088;-37
2023/03/30 01:45:32;;;;;;;4.72;2.30;;;12.30;99.90;;;;;;5074865;28;20079;-37
2023/03/30 01:48:22;;;;;;;6.50;2.63;;;12.40;99.90;;;;;;5086249;28;20154;-38
2023/03/30 01:51:01;;;;;;;4.85;2.25;;;12.40;99.90;;;;;;5085818;28;20626;-38
2023/03/30 01:53:56;;;;;;;10.82;2.50;;;12.30;99.90;;;;;;5068064;28;20131;-37
2023/03/30 01:56:31;;;;;;;8.93;1.98;;;12.30;99.90;;;;;;5084438;28;20043;-38
2023/03/30 01:59:30;;;;;;;7.82;2.20;;;12.30;99.90;;;;;;5080869;28;20115;-41
2023/03/30 02:02:03;;;;;;;6.75;2.50;;;12.30;99.90;;;;;;5087895;28;20040;-45
2023/03/30 02:04:32;;;;;;;5.30;2.08;;;12.30;99.90;;;;;;5088182;28;20039;-42
2023/03/30 02:07:02;;;;;;;7.20;2.33;;;12.30;99.90;;;;;;5085716;28;20040;-42
2023/03/30 02:09:31;;;;;;;5.35;1.95;;;12.40;99.90;;;;;;5072279;28;20052;-42
2023/03/30 02:11:59;;;;;;;4.10;2.00;;;12.30;99.90;;;;;;5085825;28;20073;-44
2023/03/30 02:14:29;;;;;;;4.28;1.80;;;12.40;99.90;;;;;;5078522;28;20401;-43
2023/03/30 02:17:05;;;;;;;6.00;1.58;;;12.40;99.90;;;;;;5093574;28;20533;-43
2023/03/30 02:19:32;;;;;;;4.35;1.77;;;12.40;99.90;;;;;;5082652;28;20123;-42
2023/03/30 02:22:00;;;;;;;4.43;1.67;;;12.40;99.90;;;;;;5084849;28;20113;-43
2023/03/30 02:24:30;;;;;;;4.78;1.70;;;12.40;99.90;;;;;;5077202;28;20474;-43
2023/03/30 02:26:58;;;;;;;7.10;2.00;;;12.40;99.90;;;;;;5084673;28;20060;-46
2023/03/30 02:29:24;;;;;;;5.88;1.90;;;12.40;99.90;;;;;;5077339;28;20056;-45
2023/03/30 02:31:55;;;;;;;5.32;1.65;;;12.40;99.90;;;;;;5085283;28;20048;-42
2023/03/30 02:34:35;;;;;;;5.43;2.10;;;12.30;99.90;;;;;;5083794;28;20052;-44
2023/03/30 02:37:20;;;;;;;4.78;1.80;;;12.20;99.90;;;;;;5084483;28;20097;-43
2023/03/30 02:40:31;;;;;;;4.28;1.80;;;12.20;99.90;;;;;;5079780;28;20044;-42
2023/03/30 02:43:08;;;;;;;6.47;2.00;;;12.10;99.90;;;;;;4956722;28;20050;-42
2023/03/30 02:45:50;;;;;;;3.60;1.58;;;12.00;99.90;;;;;;4979286;28;20058;-42
2023/03/30 02:48:27;;;;;;;5.75;1.77;;;12.00;99.90;;;;;;5045682;28;20455;-38
2023/03/30 02:51:03;;;;;;;4.30;1.73;;;11.90;99.90;;;;;;5076139;28;20528;-41
2023/03/30 02:53:57;;;;;;;6.03;1.90;;;12.00;99.90;;;;;;5075341;28;20130;-37
2023/03/30 02:56:40;;;;;;;4.35;1.80;;;12.00;99.90;;;;;;5066347;28;20059;-37
2023/03/30 02:59:20;;;;;;;4.70;1.65;;;12.00;99.90;;;;;;5072135;28;20485;-36
2023/03/30 03:01:58;;;;;;;5.97;2.13;;;12.00;99.90;;;;;;5073696;28;20040;-36
2023/03/30 03:04:27;;;;;;;3.28;1.55;;;12.00;99.90;;;;;;5074938;28;20112;-37
2023/03/30 03:06:54;;;;;;;6.18;1.77;;;11.90;99.90;;;;;;5076604;28;20052;-37
2023/03/30 03:09:23;;;;;;;5.25;1.83;;;12.00;99.90;;;;;;5073582;28;20582;-37
2023/03/30 03:11:50;;;;;;;5.53;1.83;;;11.90;99.90;;;;;;5062182;28;20056;-37
2023/03/30 03:14:16;;;;;;;4.03;1.42;;;11.90;99.90;;;;;;5073049;28;20093;-45
2023/03/30 03:16:42;;;;;;;5.30;1.90;;;12.00;99.90;;;;;;5081071;28;20418;-48
2023/03/30 03:19:08;;;;;;;4.13;1.67;;;11.90;99.90;;;;;;5074788;28;20054;-49
2023/03/30 03:21:35;;;;;;;5.63;1.50;;;12.00;99.90;;;;;;5078701;28;20147;-38
2023/03/30 03:24:02;;;;;;;4.45;1.40;;;11.90;99.90;;;;;;5070948;28;20048;-38
2023/03/30 03:26:28;;;;;;;4.35;1.83;;;12.00;99.90;;;;;;5071066;28;20048;-38
2023/03/30 03:28:53;;;;;;;5.38;1.65;;;12.00;99.90;;;;;;5068381;28;20488;-39
2023/03/30 03:31:19;;;;;;;6.63;1.30;;;12.00;99.90;;;;;;5065973;28;20495;-38
2023/03/30 03:33:45;;;;;;;4.38;1.30;;;12.10;99.90;;;;;;5071802;28;20080;-38
2023/03/30 03:36:11;;;;;;;4.82;1.40;;;12.10;99.90;;;;;;5071098;28;20048;-42
2023/03/30 03:38:37;;;;;;;5.53;1.30;;;12.10;99.90;;;;;;5079311;28;20047;-44
2023/03/30 03:41:03;;;;;;;4.38;1.42;;;12.20;99.90;;;;;;5074013;28;20079;-43
2023/03/30 03:43:29;;;;;;;2.67;1.20;;;12.20;99.90;;;;;;5075257;28;20151;-43
2023/03/30 03:45:55;;;;;;;10.85;1.38;;;12.20;99.90;;;;;;5078036;28;20112;-49
2023/03/30 03:48:22;;;;;;;6.50;1.50;;;12.30;99.90;;;;;;5077018;28;20055;-48
2023/03/30 03:50:50;;;;;;;4.18;1.45;;;12.30;99.90;;;;;;5058991;28;20413;-45
2023/03/30 03:53:16;;;;;;;3.83;1.05;;;12.30;99.90;;;;;;5072002;28;20048;-48
2023/03/30 03:55:42;;;;;;;5.63;1.52;;;12.30;99.90;;;;;;5079987;28;20048;-46
2023/03/30 03:58:08;;;;;;;5.28;1.20;;;12.30;99.90;;;;;;5073188;28;20131;-45
2023/03/30 04:00:34;;;;;;;6.55;1.65;;;12.20;99.90;;;;;;5074438;28;20097;-48
2023/03/30 04:03:00;;;;;;;5.88;1.52;;;12.20;99.90;;;;;;5069085;28;20052;-43
2023/03/30 04:05:26;;;;;;;6.95;1.77;;;12.20;99.90;;;;;;5069311;28;20048;-47
2023/03/30 04:07:55;;;;;;;5.68;1.52;;;12.10;99.90;;;;;;5079036;28;20044;-43
2023/03/30 04:10:21;;;;;;;2.65;1.30;;;12.00;99.90;;;;;;5072349;28;20084;-48
2023/03/30 04:12:47;;;;;;;5.55;1.65;;;11.90;99.90;;;;;;5070871;28;20077;-37
2023/03/30 04:15:14;;;;;;;5.00;1.58;;;11.90;99.90;;;;;;5082639;28;20040;-38
2023/03/30 04:17:39;;;;;;;4.07;1.40;;;11.90;99.90;;;;;;5075915;28;20048;-38
2023/03/30 04:20:11;;;;;;;5.88;1.60;;;11.80;99.90;;;;;;5051616;28;20048;-38
2023/03/30 04:22:42;;;;;;;6.18;1.80;;;11.80;99.90;;;;;;5080626;28;20048;-38
2023/03/30 04:25:10;;;;;;;5.68;1.70;;;11.80;99.90;;;;;;5068552;28;20490;-38
2023/03/30 04:27:36;;;;;;;5.78;1.75;;;11.70;99.90;;;;;;5069710;28;20048;-38
2023/03/30 04:30:04;;;;;;;5.45;1.67;;;11.70;99.90;;;;;;5069548;28;21742;-38
2023/03/30 04:32:33;;;;;;;8.23;1.95;;;11.70;99.90;;;;;;5073795;28;20131;-38
2023/03/30 04:35:00;;;;;;;3.10;1.40;;;11.70;99.90;;;;;;5072488;28;20168;-38
2023/03/30 04:37:29;;;;;;;3.80;1.80;;;11.80;99.90;;;;;;5074036;28;20139;-38
2023/03/30 04:39:59;;;;;;;6.10;1.63;;;11.80;99.90;;;;;;5064485;28;20055;-38
2023/03/30 04:42:29;;;;;;;5.97;1.52;;;11.90;99.90;;;;;;5070067;28;20047;-38
2023/03/30 04:44:56;;;;;;;5.35;1.77;;;11.90;99.90;;;;;;5055528;28;20052;-38
2023/03/30 04:47:26;;;;;;;7.22;1.90;;;11.90;99.90;;;;;;5072897;28;20044;-38
2023/03/30 04:49:52;;;;;;;9.25;1.88;;;12.00;99.90;;;;;;5078320;28;20052;-38
2023/03/30 04:52:18;;;;;;;4.03;1.67;;;12.00;99.90;;;;;;5080531;28;20114;-38
2023/03/30 04:54:44;;;;;;;7.15;1.40;;;12.00;99.90;;;;;;5080756;28;20094;-38
2023/03/30 04:57:12;;;;;;;3.17;1.10;;;11.90;99.90;;;;;;5091641;28;20052;-38
2023/03/30 04:59:38;;;;;;;3.72;1.27;;;11.90;99.90;;;;;;5087433;28;20505;-38
2023/03/30 05:02:04;;;;;;;5.35;1.35;;;11.90;99.90;;;;;;5084326;28;20553;-38
2023/03/30 05:04:30;;;;;;;4.43;1.15;;;11.90;99.90;;;;;;5080083;28;20055;-38
2023/03/30 05:06:56;;;;;;;4.90;1.48;;;11.90;99.90;;;;;;5086761;28;20517;-38
2023/03/30 05:09:22;;;;;;;6.57;1.35;;;11.90;99.90;;;;;;5085940;28;20052;-38
2023/03/30 05:11:48;;;;;;;4.43;1.20;;;11.90;99.90;;;;;;5084743;28;20454;-38
2023/03/30 05:14:14;;;;;;;7.00;1.60;;;11.90;99.90;;;;;;5086659;28;20048;-38
2023/03/30 05:16:40;;;;;;;7.03;1.70;;;11.90;99.90;;;;;;5086481;28;20075;-39
2023/03/30 05:19:06;;;;;;;3.20;1.10;;;12.00;99.90;;;;;;5079039;28;20166;-38
2023/03/30 05:21:31;;;;;;;6.57;1.20;;;12.00;99.90;;;;;;5080167;28;20063;-38
2023/03/30 05:23:57;;;;;;;4.70;1.65;;;12.00;99.90;;;;;;5081881;28;20048;-38
2023/03/30 05:26:23;;;;;;;6.25;1.08;;;12.00;99.90;;;;;;5084158;28;20047;-38
2023/03/30 05:28:49;;;;;;;6.95;1.55;;;12.00;99.90;;;;;;5087128;28;20135;-38
2023/03/30 05:31:16;;;;;;;5.72;1.17;;;12.00;99.90;;;;;;5076512;28;20489;-40
2023/03/30 05:33:41;;;;;;;4.85;1.00;;;12.10;99.90;;;;;;5078856;28;20125;-38
2023/03/30 05:36:07;;;;;;;5.35;1.00;;;12.10;99.90;;;;;;5072752;28;20048;-38
2023/03/30 05:38:34;;;;;;;4.03;1.00;;;12.00;99.90;;;;;;5080547;28;20710;-38
2023/03/30 05:41:01;;;;;;;4.88;1.38;;;12.10;99.90;;;;;;5081339;28;20400;-38
2023/03/30 05:43:27;;;;;;;7.15;1.42;;;12.10;99.90;;;;;;5076564;28;20127;-38
2023/03/30 05:45:52;;;;;;;5.35;1.52;;;12.20;99.90;;;;;;5083067;28;20163;-38
2023/03/30 05:48:18;;;;;;;4.55;1.70;;;12.20;99.90;;;;;;5085252;28;20565;-38
2023/03/30 05:50:46;;;;;;;4.40;1.67;;;12.20;99.90;;;;;;5074706;28;20124;-38
2023/03/30 05:53:12;;;;;;;6.53;1.80;;;12.20;99.90;;;;;;5074716;28;20091;-38
2023/03/30 05:55:38;;;;;;;6.15;1.80;;;12.20;99.90;;;;;;5081363;28;20481;-38
2023/03/30 05:58:03;;;;;;;7.43;1.70;;;12.30;99.90;;;;;;5084045;28;20055;-38
2023/03/30 06:00:32;;;;;;;4.65;1.83;;;12.20;99.90;;;;;;5077971;28;20081;-38
2023/03/30 06:02:58;;;;;;;5.53;1.90;;;12.30;99.90;;;;;;5082556;28;20083;-38
2023/03/30 06:05:24;;;;;;;4.80;2.03;;;12.30;99.90;;;;;;5079882;28;20561;-38
2023/03/30 06:07:50;;;;;;;3.13;1.20;;;12.30;99.90;;;;;;5085091;28;20056;-37
2023/03/30 06:10:16;;;;;;;3.53;1.23;;;12.30;99.90;;;;;;5084890;28;20117;-38
2023/03/30 06:12:42;;;;;;;6.55;1.98;;;12.30;99.90;;;;;;5078646;28;20470;-36
2023/03/30 06:15:08;;;;;;;8.63;1.23;;;12.30;99.90;;;;;;5083319;28;20130;-37
2023/03/30 06:17:35;;;;;;;7.68;1.30;;;12.30;99.90;;;;;;5085858;28;20879;-36
2023/03/30 06:20:07;;;;;;;5.57;1.38;;;12.30;99.90;;;;;;5072314;28;20497;-37
2023/03/30 06:22:33;;;;;;;6.45;1.30;;;12.30;99.90;;;;;;5074373;28;20639;-37
2023/03/30 06:24:59;;;;;;;6.15;2.38;;;12.30;99.90;;;;;;5079414;28;20131;-36
2023/03/30 06:27:25;;;;;;;4.60;1.00;;;12.30;99.90;;;;;;5079450;28;20189;-37
2023/03/30 06:29:51;;;;;;;7.72;1.20;;;12.30;99.90;;;;;;5082811;28;20511;-37
2023/03/30 06:32:17;;;;;;;3.40;1.02;;;12.30;99.90;;;;;;5079297;28;20178;-37
2023/03/30 06:34:43;;;;;;;7.78;1.40;;;12.30;99.90;;;;;;5076160;28;20044;-37
2023/03/30 06:37:09;;;;;;;6.75;1.30;;;12.30;99.90;;;;;;5086325;28;20104;-37
2023/03/30 06:39:37;;;;;;;6.47;1.58;;;12.30;99.90;;;;;;5076172;28;20048;-37
2023/03/30 06:42:04;;;;;;;7.47;1.13;;;12.40;99.90;;;;;;5068705;28;20044;-37
2023/03/30 06:44:30;;;;;;;7.15;1.52;;;12.30;99.90;;;;;;5080863;28;20055;-37
2023/03/30 06:46:56;;;;;;;6.85;1.30;;;12.30;99.90;;;;;;5080898;28;20468;-37
2023/03/30 06:49:21;;;;;;;9.35;1.00;;;12.40;99.90;;;;;;5087282;28;20072;-38
2023/03/30 06:51:47;;;;;;;11.68;1.70;;;12.40;99.90;;;;;;5089233;28;20090;-37
2023/03/30 06:54:13;;;;;;;7.88;1.48;;;12.40;99.90;;;;;;5085958;28;20380;-38
2023/03/30 06:56:39;;;;;;;7.78;1.40;;;12.40;99.90;;;;;;5085149;28;20059;-38
2023/03/30 06:59:04;;;;;;;11.68;1.50;;;12.40;99.90;;;;;;5086584;28;20079;-39
2023/03/30 07:01:30;;;;;;;7.57;1.35;;;12.40;99.90;;;;;;5088389;28;20117;-38
2023/03/30 07:03:56;;;;;;;8.00;1.45;;;12.50;99.90;;;;;;5082751;28;20424;-38
2023/03/30 07:06:23;;;;;;;9.50;1.75;;;12.50;99.90;;;;;;5080166;28;20592;-38
2023/03/30 07:08:48;;;;;;;10.48;1.92;;;12.60;99.90;;;;;;5078331;28;20424;-38
2023/03/30 07:11:14;;;;;;;10.50;1.52;;;12.60;99.90;;;;;;5080410;28;20046;-38
2023/03/30 07:13:40;;;;;;;8.85;1.67;;;12.60;99.90;;;;;;5083676;28;20477;-38
2023/03/30 07:16:06;;;;;;;11.20;1.38;;;12.50;99.90;;;;;;5088029;28;20506;-38
2023/03/30 07:18:35;;;;;;;10.02;1.77;;;12.50;99.90;;;;;;5083274;28;20047;-38
2023/03/30 07:21:02;;;;;;;11.52;1.67;;;12.50;99.90;;;;;;5088205;28;20570;-38
2023/03/30 07:23:27;;;;;;;9.23;1.80;;;12.50;99.90;;;;;;5081258;28;20146;-39
2023/03/30 07:25:53;;;;;;;7.80;1.92;;;12.40;99.90;;;;;;5080723;28;20438;-38
2023/03/30 07:28:19;;;;;;;13.60;2.33;;;12.40;99.90;;;;;;5082614;28;20056;-38
2023/03/30 07:30:45;;;;;;;8.65;1.77;;;12.40;99.90;;;;;;5076237;28;20063;-39
2023/03/30 07:33:10;;;;;;;9.48;1.60;;;12.40;99.90;;;;;;5085571;28;20401;-38
2023/03/30 07:35:43;;;;;;;11.13;2.25;;;12.30;99.90;;;;;;5081795;28;20048;-38
2023/03/30 07:38:09;;;;;;;14.65;2.88;;;12.20;99.90;;;;;;5088005;28;20054;-38
2023/03/30 07:40:35;;;;;;;16.15;1.65;;;12.20;99.90;;;;;;5083901;28;20135;-38
2023/03/30 07:43:00;;;;;;;14.20;2.10;;;12.20;99.90;;;;;;5080604;28;20432;-38
2023/03/30 07:45:26;;;;;;;16.00;2.10;;;12.10;99.90;;;;;;5081049;28;20404;-38
2023/03/30 07:47:51;;;;;;;12.55;1.67;;;12.10;99.90;;;;;;5077679;28;20101;-39
2023/03/30 07:50:17;;;;;;;10.82;2.40;;;12.10;99.90;;;;;;5080696;28;20717;-38
2023/03/30 07:52:43;;;;;;;11.60;1.65;;;12.10;99.90;;;;;;5083446;28;21210;-39
2023/03/30 07:55:09;;;;;;;10.15;1.85;;;12.10;99.90;;;;;;5079677;28;20645;-38
2023/03/30 07:57:35;;;;;;;13.32;2.67;;;12.10;99.90;;;;;;5078443;28;20060;-38
2023/03/30 08:00:04;;;;;;;11.57;2.17;;;12.20;99.90;;;;;;5072016;28;20591;-38
2023/03/30 08:02:29;;;;;;;13.80;1.90;;;12.20;99.90;;;;;;5084769;28;20067;-38
2023/03/30 08:04:55;;;;;;;8.52;2.15;;;12.20;99.90;;;;;;5081807;28;20133;-39
2023/03/30 08:07:21;;;;;;;17.58;2.80;;;12.20;99.90;;;;;;5080230;28;20607;-38
2023/03/30 08:09:47;;;;;;;11.02;1.85;;;12.10;99.90;;;;;;5072130;28;20052;-38
2023/03/30 08:12:12;;;;;;;9.57;1.55;;;12.10;99.90;;;;;;5076425;28;20048;-38
2023/03/30 08:14:38;;;;;;;9.60;1.88;;;12.10;99.90;;;;;;5079759;28;20078;-38
2023/03/30 08:17:04;;;;;;;12.45;3.15;;;12.00;99.90;;;;;;5078011;28;20505;-40
2023/03/30 08:19:29;;;;;;;11.43;2.33;;;11.90;99.90;;;;;;5080920;28;20059;-38
2023/03/30 08:21:55;;;;;;;14.30;2.45;;;11.80;99.90;;;;;;5087512;28;20059;-39
2023/03/30 08:24:21;;;;;;;13.38;1.75;;;11.80;99.90;;;;;;5080270;28;20052;-38
2023/03/30 08:26:47;;;;;;;14.32;1.92;;;11.70;99.90;;;;;;5083050;28;20059;-38
2023/03/30 08:29:12;;;;;;;9.95;1.80;;;11.70;99.90;;;;;;5077959;28;20520;-39
2023/03/30 08:31:38;;;;;;;16.48;1.98;;;11.80;99.90;;;;;;5080909;28;20059;-38
2023/03/30 08:34:05;;;;;;;11.55;2.28;;;11.80;99.90;;;;;;5081308;28;20054;-38
2023/03/30 08:36:31;;;;;;;17.23;2.47;;;11.90;99.90;;;;;;5081584;28;20506;-38
2023/03/30 08:38:56;;;;;;;17.23;3.60;;;12.00;99.90;;;;;;5082605;28;20080;-39
2023/03/30 08:41:28;;;;;;;13.30;3.10;;;12.10;99.90;;;;;;5087150;28;20185;-38
2023/03/30 08:44:00;;;;;;;19.15;2.55;;;12.20;99.90;;;;;;5083426;28;20052;-39
2023/03/30 08:46:27;;;;;;;15.52;2.55;;;12.20;99.90;;;;;;5069907;28;20048;-38
2023/03/30 08:48:58;;;;;;;14.20;2.45;;;12.40;99.90;;;;;;5083303;28;20406;-39
2023/03/30 08:51:34;;;;;;;15.43;1.88;;;12.70;99.90;;;;;;5084174;28;20048;-38
2023/03/30 08:54:05;;;;;;;15.18;2.03;;;12.80;99.90;;;;;;5083524;28;20447;-45
2023/03/30 08:57:15;;;;;;;19.95;2.47;;;12.90;99.90;;;;;;5082551;28;20132;-47
2023/03/30 09:00:18;;;;;;;11.07;1.52;;;12.90;99.90;;;;;;5030293;28;20494;-38
2023/03/30 09:02:48;;;;;;;11.85;1.90;;;12.80;99.90;;;;;;5065184;28;20506;-37
2023/03/30 09:05:28;;;;;;;10.90;1.88;;;12.80;99.90;;;;;;5061744;28;20041;-38
2023/03/30 09:08:11;;;;;;;9.95;1.67;;;12.80;99.90;;;;;;5058388;28;20502;-37
2023/03/30 09:10:42;;;;;;;12.65;1.60;;;12.90;99.90;;;;;;5062353;28;20067;-37
2023/03/30 09:13:13;;;;;;;10.25;1.92;;;13.00;99.90;;;;;;5055855;28;20052;-37
2023/03/30 09:15:47;;;;;;;9.75;1.85;;;13.00;99.90;;;;;;5057611;28;20056;-37
2023/03/30 09:18:34;;;;;;;8.90;0.80;;;12.90;99.90;;;;;;5057056;28;20048;-37
2023/03/30 09:21:02;;;;;;;14.40;2.15;;;12.80;99.90;;;;;;5054261;28;20128;-37
2023/03/30 09:23:30;;;;;;;5.68;1.63;;;12.90;99.90;;;;;;5056764;28;20063;-38
2023/03/30 09:26:05;;;;;;;12.23;1.08;;;12.90;99.90;;;;;;5058374;28;20052;-37
2023/03/30 09:28:38;;;;;;;10.13;1.38;;;13.00;99.90;;;;;;5059473;28;20048;-37
2023/03/30 09:31:12;;;;;;;9.80;1.60;;;13.00;99.90;;;;;;5052068;28;20057;-38
2023/03/30 09:34:30;;;;;;;9.85;1.90;;;13.10;99.90;;;;;;5056353;28;20123;-37
2023/03/30 09:37:08;;;;;;;6.78;1.15;;;13.30;99.90;;;;;;5008938;28;20128;-38
2023/03/30 09:39:35;;;;;;;8.55;1.30;;;13.40;99.90;;;;;;5057822;28;20174;-37
2023/03/30 09:42:15;;;;;;;7.68;0.98;;;13.40;99.90;;;;;;5066047;28;20052;-37
2023/03/30 09:44:51;;;;;;;7.15;1.05;;;13.40;99.90;;;;;;5059932;28;20056;-38
2023/03/30 09:47:31;;;;;;;14.63;1.92;;;13.40;99.90;;;;;;5067880;28;20052;-38
2023/03/30 09:50:05;;;;;;;12.48;1.30;;;13.40;99.90;;;;;;5063239;28;20057;-43
2023/03/30 09:52:37;;;;;;;10.52;1.40;;;13.30;99.90;;;;;;5066257;28;20048;-38
2023/03/30 09:55:21;;;;;;;10.13;1.10;;;13.30;99.90;;;;;;5060698;28;20044;-42
2023/03/30 09:57:49;;;;;;;7.90;1.10;;;13.30;99.90;;;;;;5056158;28;20049;-44
2023/03/30 10:00:32;;;;;;;15.48;3.30;;;13.30;99.90;;;;;;5072855;28;20051;-44
2023/03/30 10:03:00;;;;;;;8.43;1.42;;;13.40;99.90;;;;;;5081777;28;20379;-43
2023/03/30 10:05:26;;;;;;;9.25;1.27;;;13.50;99.90;;;;;;5085394;28;20044;-41
2023/03/30 10:07:55;;;;;;;13.55;2.15;;;13.50;99.90;;;;;;5075425;28;20051;-41
2023/03/30 10:10:38;;;;;;;10.20;1.30;;;13.60;99.90;;;;;;5084409;28;20066;-43
2023/03/30 10:13:20;;;;;;;8.60;1.20;;;13.60;99.90;;;;;;5082304;28;20040;-41
2023/03/30 10:15:51;;;;;;;10.03;1.73;;;13.70;99.90;;;;;;5075943;28;20060;-41
2023/03/30 10:18:17;;;;;;;10.25;1.60;;;13.70;99.90;;;;;;5084541;28;20294;-43
2023/03/30 10:20:50;;;;;;;6.25;1.30;;;13.80;99.90;;;;;;5082558;28;20056;-42
2023/03/30 10:23:18;;;;;;;16.15;2.00;;;13.90;99.90;;;;;;5075976;28;20052;-41
2023/03/30 10:25:50;;;;;;;9.00;1.00;;;14.00;99.90;;;;;;5078416;28;20118;-43
2023/03/30 10:28:28;;;;;;;8.07;1.30;;;14.10;99.90;;;;;;5075272;28;20062;-43
2023/03/30 10:30:58;;;;;;;8.80;1.25;;;14.10;99.90;;;;;;5085248;28;20115;-42
2023/03/30 10:33:24;;;;;;;6.65;1.58;;;14.20;99.90;;;;;;5080505;28;20445;-44
2023/03/30 10:35:55;;;;;;;9.20;1.10;;;14.30;99.90;;;;;;5075964;28;20050;-44
2023/03/30 10:38:22;;;;;;;9.48;1.73;;;14.50;99.90;;;;;;5080785;28;20269;-44
2023/03/30 10:40:54;;;;;;;10.52;1.08;;;14.70;99.90;;;;;;5082553;28;20135;-44
2023/03/30 10:43:28;;;;;;;7.88;1.35;;;14.70;99.90;;;;;;5082524;28;20052;-46
2023/03/30 10:45:57;;;;;;;10.93;1.60;;;14.60;99.90;;;;;;5082054;28;20406;-46
2023/03/30 10:48:36;;;;;;;8.20;1.15;;;14.50;99.90;;;;;;5080635;28;20044;-45
2023/03/30 10:51:23;;;;;;;7.85;1.38;;;14.40;99.90;;;;;;5079075;28;20047;-44
2023/03/30 10:53:55;;;;;;;9.68;1.27;;;14.50;99.90;;;;;;5047905;28;21765;-44
2023/03/30 10:56:41;;;;;;;10.43;1.95;;;14.60;99.90;;;;;;5080791;28;20489;-43
2023/03/30 10:59:41;;;;;;;12.35;1.83;;;14.60;99.90;;;;;;5076235;28;20109;-44
2023/03/30 11:02:24;;;;;;;9.98;1.67;;;14.50;99.90;;;;;;5076670;28;20052;-45
2023/03/30 11:05:03;;;;;;;11.23;1.42;;;14.60;99.90;;;;;;5080386;28;20060;-45
2023/03/30 11:07:38;;;;;;;8.88;1.38;;;14.60;99.90;;;;;;5082642;28;20050;-47
2023/03/30 11:10:18;;;;;;;10.55;1.70;;;14.70;99.90;;;;;;5075110;28;20678;-46
2023/03/30 11:12:50;;;;;;;17.73;2.00;;;14.70;99.90;;;;;;5082010;28;20101;-44
2023/03/30 11:15:30;;;;;;;11.07;1.75;;;14.70;99.90;;;;;;5078016;28;20057;-38
2023/03/30 11:18:12;;;;;;;13.10;1.30;;;14.60;99.90;;;;;;5077980;28;20489;-38
2023/03/30 11:20:46;;;;;;;12.30;1.90;;;14.60;99.90;;;;;;5077047;28;20052;-38
2023/03/30 11:23:28;;;;;;;11.50;1.75;;;14.70;99.90;;;;;;5077672;28;20656;-38
2023/03/30 11:25:54;;;;;;;9.30;1.42;;;14.80;99.90;;;;;;5079877;28;20157;-38
2023/03/30 11:28:57;;;;;;;11.55;2.42;;;15.00;99.90;;;;;;5080829;28;20139;-38
2023/03/30 11:31:34;;;;;;;11.25;2.03;;;15.10;99.90;;;;;;4989057;28;20077;-38
2023/03/30 11:34:19;;;;;;;10.45;1.50;;;15.30;99.90;;;;;;5066608;28;20048;-38
2023/03/30 11:36:54;;;;;;;12.23;2.15;;;15.30;99.90;;;;;;5077342;28;20473;-38
2023/03/30 11:39:28;;;;;;;10.82;2.00;;;15.10;99.90;;;;;;5079433;28;20052;-38
2023/03/30 11:42:31;;;;;;;14.02;1.92;;;15.10;99.90;;;;;;5075032;28;20414;-38
2023/03/30 11:44:59;;;;;;;16.83;1.70;;;15.10;99.90;;;;;;5074798;28;20044;-38
2023/03/30 11:47:42;;;;;;;13.88;2.40;;;15.00;99.90;;;;;;5075664;28;20040;-38
2023/03/30 11:51:00;;;;;;;10.75;1.40;;;15.00;99.90;;;;;;5069339;28;20630;-38
2023/03/30 11:53:26;;;;;;;14.63;1.77;;;15.20;99.90;;;;;;4989967;28;20180;-39
2023/03/30 11:56:17;;;;;;;6.82;1.40;;;15.40;99.90;;;;;;5076253;28;20060;-38
2023/03/30 11:58:55;;;;;;;10.85;1.90;;;15.50;99.90;;;;;;5075194;28;20040;-38
2023/03/30 12:01:28;;;;;;;11.05;2.70;;;15.70;99.90;;;;;;5076297;28;20501;-38
2023/03/30 12:04:09;;;;;;;8.82;2.13;;;15.80;99.90;;;;;;5074606;28;20916;-38
2023/03/30 12:06:51;;;;;;;12.73;1.98;;;15.80;99.90;;;;;;5081174;28;20143;-38
2023/03/30 12:09:31;;;;;;;12.57;1.60;;;15.90;99.90;;;;;;5079801;28;20043;-38
2023/03/30 12:12:17;;;;;;;12.50;1.70;;;15.90;99.90;;;;;;5073865;28;20056;-38
2023/03/30 12:15:14;;;;;;;7.47;1.25;;;16.00;99.90;;;;;;5071595;28;20050;-38
2023/03/30 12:17:52;;;;;;;12.80;1.65;;;16.00;99.90;;;;;;5078532;28;20402;-38
2023/03/30 12:20:37;;;;;;;11.85;1.58;;;15.80;99.90;;;;;;5076449;28;20048;-38
2023/03/30 12:23:29;;;;;;;11.50;1.58;;;15.70;99.90;;;;;;5060769;28;20228;-38
2023/03/30 12:26:18;;;;;;;7.70;1.05;;;15.50;99.90;;;;;;5054155;28;20048;-38
2023/03/30 12:28:58;;;;;;;11.65;1.30;;;15.30;99.90;;;;;;5077250;28;20048;-38
2023/03/30 12:32:03;;;;;;;14.52;3.88;;;15.30;99.90;;;;;;5081519;28;20141;-37
2023/03/30 12:34:35;;;;;;;12.70;1.98;;;15.40;99.90;;;;;;5077788;28;20459;-37
2023/03/30 12:37:04;;;;;;;;;;;15.50;99.90;;;;;;5080864;28;20485;-38
2023/03/30 12:39:49;;;;;;;12.55;2.10;;;15.70;99.90;;;;;;5064692;28;19920;-38
2023/03/30 12:42:33;;;;;;;11.23;1.33;;;15.80;99.90;;;;;;5076356;28;21406;-38
2023/03/30 12:45:13;;;;;;;11.95;1.95;;;15.80;99.90;;;;;;5078665;28;20044;-38
2023/03/30 12:48:31;;;;;;;14.73;1.92;;;15.90;99.90;;;;;;5075066;28;21372;-38
2023/03/30 12:51:12;;;;;;;10.10;2.15;;;16.00;99.90;;;;;;5060910;28;20052;-39
2023/03/30 12:53:50;;;;;;;10.38;2.50;;;16.10;99.90;;;;;;5078475;28;20051;-38
2023/03/30 12:56:54;;;;;;;14.05;2.50;;;16.30;99.90;;;;;;5074548;28;20084;-38
2023/03/30 13:00:01;;;;;;;17.88;2.20;;;16.50;99.90;;;;;;5049520;28;20044;-38
2023/03/30 13:02:41;;;;;;;11.50;2.10;;;16.60;99.90;;;;;;5070097;28;20058;-38
2023/03/30 13:05:31;;;;;;;10.75;2.28;;;16.60;99.90;;;;;;5070067;28;20660;-38
2023/03/30 13:08:02;;;;;;;11.20;1.70;;;16.50;99.90;;;;;;5080211;28;20509;-38
2023/03/30 13:10:28;;;;;;;12.48;1.90;;;16.50;99.90;;;;;;5079933;28;20489;-38